Time;durP1;ratioP1;P1;durP2;ratioP2;P2;SDS_P1;SDS_P2;PMS_P1;PMS_P2;Temp;Humidity;BMP_temperature;BMP_pressure;BME280_temperature;BME280_humidity;BME280_pressure;Samples;Min_cycle;Max_cycle;Signal;HPM_P1;HPM_P2
2022/07/30 00:01:30;;;;;;;0.40;0.40;;;14.70;99.90;;;;;;4919508;28;20039;-83
2022/07/30 00:03:56;;;;;;;0.30;0.30;;;14.70;99.90;;;;;;4919442;28;20039;-83
2022/07/30 00:06:21;;;;;;;0.30;0.30;;;14.80;99.90;;;;;;4919971;28;20042;-83
2022/07/30 00:08:48;;;;;;;0.30;0.30;;;14.60;99.90;;;;;;4923990;28;20046;-83
2022/07/30 00:11:14;;;;;;;0.40;0.40;;;14.50;99.90;;;;;;4916951;28;20558;-83
2022/07/30 00:13:40;;;;;;;0.30;0.30;;;14.60;99.90;;;;;;4920996;28;20046;-83
2022/07/30 00:16:06;;;;;;;0.30;0.30;;;14.50;99.90;;;;;;4919606;28;20043;-83
2022/07/30 00:18:32;;;;;;;0.40;0.40;;;14.60;99.90;;;;;;4901071;28;20053;-83
2022/07/30 00:20:58;;;;;;;0.30;0.30;;;14.40;99.90;;;;;;4920736;28;20047;-83
2022/07/30 00:23:24;;;;;;;0.40;0.40;;;14.30;99.90;;;;;;4930290;28;20039;-83
2022/07/30 00:25:49;;;;;;;0.30;0.30;;;14.20;99.90;;;;;;4927019;28;21129;-83
2022/07/30 00:28:15;;;;;;;0.40;0.40;;;14.10;99.90;;;;;;4903045;28;20629;-82
2022/07/30 00:30:41;;;;;;;0.30;0.30;;;14.00;99.90;;;;;;4930843;28;20073;-83
2022/07/30 00:33:07;;;;;;;0.30;0.30;;;14.00;99.90;;;;;;4943644;28;20062;-83
2022/07/30 00:35:33;;;;;;;0.40;0.40;;;13.90;99.90;;;;;;4909550;28;20597;-83
2022/07/30 00:37:58;;;;;;;0.30;0.30;;;13.90;99.90;;;;;;4922433;28;20047;-83
2022/07/30 00:40:24;;;;;;;0.30;0.30;;;13.80;99.90;;;;;;4943755;28;20145;-83
2022/07/30 00:42:50;;;;;;;0.40;0.40;;;13.80;99.90;;;;;;4928810;28;20059;-83
2022/07/30 00:45:17;;;;;;;0.30;0.30;;;13.70;99.90;;;;;;4946044;28;20051;-83
2022/07/30 00:47:43;;;;;;;0.30;0.30;;;13.60;99.90;;;;;;4923580;28;20636;-83
2022/07/30 00:50:11;;;;;;;0.30;0.30;;;13.60;99.90;;;;;;4927781;28;20059;-83
2022/07/30 00:52:37;;;;;;;0.40;0.40;;;13.60;99.90;;;;;;4928041;28;20058;-83
2022/07/30 00:55:05;;;;;;;0.30;0.30;;;13.60;99.90;;;;;;4929683;28;20058;-82
2022/07/30 00:57:31;;;;;;;0.30;0.30;;;13.60;99.90;;;;;;4926842;28;20050;-83
2022/07/30 00:59:58;;;;;;;0.40;0.40;;;13.50;99.90;;;;;;4924070;28;20086;-83
2022/07/30 01:02:24;;;;;;;0.38;0.38;;;13.60;99.90;;;;;;4926170;28;20055;-83
2022/07/30 01:04:49;;;;;;;0.40;0.40;;;13.60;99.90;;;;;;4909318;28;20247;-83
2022/07/30 01:07:15;;;;;;;0.40;0.40;;;13.40;99.90;;;;;;4926642;28;20182;-83
2022/07/30 01:09:41;;;;;;;0.40;0.40;;;13.30;99.90;;;;;;4925841;28;20046;-83
2022/07/30 01:12:09;;;;;;;0.40;0.40;;;13.30;99.90;;;;;;4910768;28;20377;-82
2022/07/30 01:14:35;;;;;;;0.30;0.30;;;13.20;99.90;;;;;;4941465;28;20492;-83
2022/07/30 01:17:03;;;;;;;0.35;0.35;;;13.20;99.90;;;;;;4927082;28;20061;-83
2022/07/30 01:19:54;;;;;;;0.40;0.40;;;13.10;99.90;;;;;;4928545;28;20523;-83
2022/07/30 01:22:23;;;;;;;0.30;0.30;;;13.10;99.90;;;;;;4921459;28;20086;-83
2022/07/30 01:25:16;;;;;;;0.38;0.38;;;13.10;99.90;;;;;;4920463;28;20574;-83
2022/07/30 01:27:49;;;;;;;0.40;0.40;;;13.10;99.90;;;;;;4920898;28;20059;-82
2022/07/30 01:30:19;;;;;;;0.40;0.40;;;13.10;99.90;;;;;;4927387;28;20050;-82
2022/07/30 01:32:46;;;;;;;0.40;0.40;;;13.10;99.90;;;;;;4927679;28;20050;-82
2022/07/30 01:35:13;;;;;;;0.40;0.40;;;13.20;99.90;;;;;;4932078;28;20051;-82
2022/07/30 01:37:41;;;;;;;0.30;0.30;;;13.10;99.90;;;;;;4912253;28;20050;-82
2022/07/30 01:40:08;;;;;;;0.40;0.40;;;13.10;99.90;;;;;;4921790;28;20051;-83
2022/07/30 01:42:36;;;;;;;0.35;0.35;;;13.00;99.90;;;;;;4923589;28;20299;-82
2022/07/30 01:45:04;;;;;;;0.40;0.40;;;13.00;99.90;;;;;;4919615;28;21343;-82
2022/07/30 01:47:32;;;;;;;0.40;0.40;;;12.90;99.90;;;;;;4930989;28;20075;-82
2022/07/30 01:49:59;;;;;;;0.30;0.30;;;12.80;99.90;;;;;;4952416;28;20124;-82
2022/07/30 01:52:25;;;;;;;0.40;0.40;;;12.70;99.90;;;;;;4942324;28;20066;-83
2022/07/30 01:54:55;;;;;;;0.40;0.40;;;12.70;99.90;;;;;;4920546;28;20049;-83
2022/07/30 01:57:21;;;;;;;0.40;0.40;;;12.60;99.90;;;;;;4935291;28;20672;-82
2022/07/30 01:59:51;;;;;;;0.40;0.40;;;12.50;99.90;;;;;;4936107;28;20066;-82
2022/07/30 02:02:17;;;;;;;0.40;0.40;;;12.20;99.90;;;;;;4934424;28;20747;-82
2022/07/30 02:04:42;;;;;;;0.40;0.40;;;12.30;99.90;;;;;;4952228;28;20049;-82
2022/07/30 02:07:21;;;;;;;0.40;0.40;;;12.40;99.90;;;;;;4931664;28;20054;-82
2022/07/30 02:10:03;;;;;;;0.40;0.40;;;12.50;99.90;;;;;;4952479;28;20570;-82
2022/07/30 02:12:31;;;;;;;0.40;0.40;;;12.70;99.90;;;;;;4934313;28;20058;-82
2022/07/30 02:15:00;;;;;;;0.40;0.40;;;12.80;99.90;;;;;;4952073;28;20721;-83
2022/07/30 02:17:31;;;;;;;0.40;0.40;;;12.90;99.90;;;;;;4932400;28;20696;-82
2022/07/30 02:19:59;;;;;;;0.40;0.40;;;12.90;99.90;;;;;;4949771;28;20055;-83
2022/07/30 02:22:27;;;;;;;0.40;0.40;;;13.00;99.90;;;;;;4951230;28;20473;-83
2022/07/30 02:24:55;;;;;;;0.40;0.40;;;13.00;99.90;;;;;;4937532;28;20058;-83
2022/07/30 02:27:28;;;;;;;0.40;0.40;;;13.10;99.90;;;;;;4932466;28;20905;-83
2022/07/30 02:29:58;;;;;;;0.40;0.40;;;13.10;99.90;;;;;;4936175;28;20058;-83
2022/07/30 02:32:26;;;;;;;0.40;0.40;;;13.10;99.90;;;;;;4933188;28;20057;-83
2022/07/30 02:34:59;;;;;;;0.40;0.40;;;13.20;99.90;;;;;;4938303;28;20058;-82
2022/07/30 02:37:27;;;;;;;0.40;0.40;;;13.20;99.90;;;;;;4952825;28;20058;-83
2022/07/30 02:40:28;;;;;;;0.40;0.40;;;13.20;99.90;;;;;;4934889;28;20050;-83
2022/07/30 02:42:55;;;;;;;0.40;0.40;;;13.10;99.90;;;;;;4852614;29;20063;-82
2022/07/30 02:45:23;;;;;;;0.30;0.30;;;13.00;99.90;;;;;;4925388;28;20059;-83
2022/07/30 02:48:00;;;;;;;0.38;0.38;;;12.90;99.90;;;;;;4938109;28;20160;-82
2022/07/30 02:50:27;;;;;;;0.40;0.40;;;12.80;99.90;;;;;;4950652;28;20916;-83
2022/07/30 02:52:55;;;;;;;0.40;0.40;;;12.70;99.90;;;;;;4931835;28;20051;-82
2022/07/30 02:55:23;;;;;;;0.40;0.40;;;12.70;99.90;;;;;;4949046;28;20043;-82
2022/07/30 02:57:51;;;;;;;0.40;0.40;;;12.80;99.90;;;;;;4954776;28;21151;-84
2022/07/30 03:00:17;;;;;;;0.40;0.40;;;12.70;99.90;;;;;;4937287;28;20100;-83
2022/07/30 03:02:45;;;;;;;0.40;0.40;;;12.60;99.90;;;;;;4935989;28;20043;-82
2022/07/30 03:05:13;;;;;;;0.40;0.40;;;12.50;99.90;;;;;;4935883;28;20042;-82
2022/07/30 03:07:40;;;;;;;0.40;0.40;;;12.40;99.90;;;;;;4934342;28;20501;-82
2022/07/30 03:10:07;;;;;;;0.40;0.40;;;12.30;99.90;;;;;;4951574;28;20125;-82
2022/07/30 03:12:34;;;;;;;0.40;0.40;;;12.40;99.90;;;;;;4952573;28;20046;-82
2022/07/30 03:15:01;;;;;;;0.40;0.40;;;12.50;99.90;;;;;;4937528;28;20061;-82
2022/07/30 03:17:31;;;;;;;0.40;0.40;;;12.60;99.90;;;;;;4953233;28;20078;-82
2022/07/30 03:19:59;;;;;;;0.40;0.40;;;12.70;99.90;;;;;;4950078;28;20061;-82
2022/07/30 03:22:27;;;;;;;0.40;0.40;;;12.80;99.90;;;;;;4939151;28;20054;-81
2022/07/30 03:24:56;;;;;;;0.40;0.40;;;12.90;99.90;;;;;;4937168;28;20063;-82
2022/07/30 03:27:23;;;;;;;0.40;0.40;;;12.70;99.90;;;;;;4935888;28;20066;-83
2022/07/30 03:29:53;;;;;;;0.40;0.40;;;12.70;99.90;;;;;;4921573;28;20052;-82
2022/07/30 03:32:20;;;;;;;0.40;0.40;;;12.70;99.90;;;;;;4943046;28;20062;-82
2022/07/30 03:34:47;;;;;;;0.40;0.40;;;12.70;99.90;;;;;;4936262;28;20061;-82
2022/07/30 03:37:13;;;;;;;0.40;0.40;;;12.60;99.90;;;;;;4940405;28;20058;-82
2022/07/30 03:39:40;;;;;;;0.40;0.40;;;12.50;99.90;;;;;;4935103;28;20051;-82
2022/07/30 03:42:07;;;;;;;0.40;0.40;;;12.40;99.90;;;;;;4936038;28;20050;-83
2022/07/30 03:44:34;;;;;;;0.40;0.40;;;12.40;99.90;;;;;;4935321;28;20039;-82
2022/07/30 03:47:01;;;;;;;0.40;0.40;;;12.50;99.90;;;;;;4936943;28;20109;-82
2022/07/30 03:49:28;;;;;;;0.40;0.40;;;12.40;99.90;;;;;;4936811;28;20139;-82
2022/07/30 03:51:55;;;;;;;0.40;0.40;;;12.50;99.90;;;;;;4950936;28;20051;-81
2022/07/30 03:54:21;;;;;;;0.40;0.40;;;12.60;99.90;;;;;;4952500;28;20050;-82
2022/07/30 03:56:47;;;;;;;0.40;0.40;;;12.70;99.90;;;;;;4937959;28;20043;-82
2022/07/30 03:59:14;;;;;;;0.38;0.38;;;12.80;99.90;;;;;;4937788;28;20050;-82
2022/07/30 04:01:40;;;;;;;0.40;0.40;;;12.80;99.90;;;;;;4923769;28;20051;-82
2022/07/30 04:04:10;;;;;;;0.40;0.40;;;12.70;99.90;;;;;;4935844;28;20047;-82
2022/07/30 04:06:41;;;;;;;0.40;0.40;;;12.50;99.90;;;;;;4938241;28;20505;-83
2022/07/30 04:09:11;;;;;;;0.30;0.30;;;12.60;99.90;;;;;;4936336;28;20054;-82
2022/07/30 04:11:38;;;;;;;0.40;0.40;;;12.50;99.90;;;;;;4936394;28;20416;-82
2022/07/30 04:14:03;;;;;;;0.40;0.40;;;12.60;99.90;;;;;;4938205;28;20450;-83
2022/07/30 04:16:53;;;;;;;0.40;0.40;;;12.50;99.90;;;;;;4936932;28;20149;-82
2022/07/30 04:19:25;;;;;;;0.40;0.40;;;12.40;99.90;;;;;;4958791;28;20054;-83
2022/07/30 04:21:53;;;;;;;0.40;0.40;;;12.50;99.90;;;;;;4937493;28;20046;-82
2022/07/30 04:24:19;;;;;;;0.40;0.40;;;12.70;99.90;;;;;;4939166;28;20521;-82
2022/07/30 04:26:47;;;;;;;0.40;0.40;;;12.70;99.90;;;;;;4951820;28;20149;-81
2022/07/30 04:29:13;;;;;;;0.40;0.40;;;12.70;99.90;;;;;;4937449;28;20082;-81
2022/07/30 04:31:39;;;;;;;0.40;0.40;;;12.50;99.90;;;;;;4939840;28;20121;-81
2022/07/30 04:34:05;;;;;;;0.40;0.40;;;12.40;99.90;;;;;;4933880;28;20071;-82
2022/07/30 04:36:32;;;;;;;0.40;0.40;;;12.40;99.90;;;;;;4954071;28;20333;-82
2022/07/30 04:38:59;;;;;;;0.40;0.40;;;12.50;99.90;;;;;;4936304;28;20050;-82
2022/07/30 04:41:25;;;;;;;0.40;0.40;;;12.60;99.90;;;;;;4951151;28;20058;-82
2022/07/30 04:43:51;;;;;;;0.40;0.40;;;12.70;99.90;;;;;;4932045;28;20086;-82
2022/07/30 04:46:17;;;;;;;0.32;0.32;;;12.80;99.90;;;;;;4950162;28;20122;-82
2022/07/30 04:48:43;;;;;;;0.40;0.40;;;13.00;99.90;;;;;;4938153;28;20499;-81
2022/07/30 04:51:15;;;;;;;0.40;0.40;;;13.10;99.90;;;;;;4933905;28;20055;-82
2022/07/30 04:53:42;;;;;;;0.40;0.40;;;13.40;99.90;;;;;;4955204;28;20567;-82
2022/07/30 04:56:10;;;;;;;0.40;0.40;;;13.50;99.90;;;;;;4953852;28;20049;-82
2022/07/30 04:58:40;;;;;;;0.40;0.40;;;13.60;99.90;;;;;;4937026;28;20046;-82
2022/07/30 05:01:07;;;;;;;0.40;0.40;;;13.70;99.90;;;;;;4935819;28;20089;-81
2022/07/30 05:03:35;;;;;;;0.40;0.40;;;13.80;99.90;;;;;;4936785;28;20051;-82
2022/07/30 05:06:02;;;;;;;0.40;0.40;;;13.90;99.90;;;;;;4941669;28;20085;-82
2022/07/30 05:08:27;;;;;;;0.40;0.40;;;13.90;99.90;;;;;;4935555;28;20072;-81
2022/07/30 05:10:54;;;;;;;0.40;0.40;;;14.00;99.90;;;;;;4920996;28;21146;-82
2022/07/30 05:13:20;;;;;;;0.40;0.40;;;14.10;99.90;;;;;;4935893;28;21030;-82
2022/07/30 05:15:45;;;;;;;0.50;0.50;;;14.20;99.90;;;;;;4953297;28;20059;-81
2022/07/30 05:18:11;;;;;;;0.40;0.40;;;14.30;99.90;;;;;;4931666;28;20051;-81
2022/07/30 05:20:37;;;;;;;0.40;0.40;;;14.40;99.90;;;;;;4931095;28;20537;-81
2022/07/30 05:23:04;;;;;;;0.40;0.40;;;14.50;99.90;;;;;;4934741;28;20058;-81
2022/07/30 05:25:29;;;;;;;0.40;0.40;;;14.60;99.90;;;;;;4952619;28;20043;-82
2022/07/30 05:27:56;;;;;;;0.40;0.40;;;14.70;99.90;;;;;;4936679;28;20469;-81
2022/07/30 05:30:23;;;;;;;0.30;0.30;;;14.80;99.90;;;;;;4953375;28;20100;-82
2022/07/30 05:32:49;;;;;;;0.40;0.40;;;14.90;99.90;;;;;;4951381;28;20043;-83
2022/07/30 05:35:15;;;;;;;0.40;0.40;;;15.00;99.90;;;;;;4950379;28;20046;-81
2022/07/30 05:37:41;;;;;;;0.40;0.40;;;15.10;99.90;;;;;;4916559;28;20057;-81
2022/07/30 05:40:08;;;;;;;0.30;0.30;;;15.20;99.90;;;;;;4935712;28;20079;-81
2022/07/30 05:42:34;;;;;;;0.30;0.30;;;15.20;99.90;;;;;;4939652;28;20397;-82
2022/07/30 05:44:59;;;;;;;0.30;0.30;;;15.30;99.90;;;;;;4919338;28;20054;-81
2022/07/30 05:47:26;;;;;;;0.30;0.30;;;15.50;99.90;;;;;;4937344;28;20063;-82
2022/07/30 05:49:52;;;;;;;0.30;0.30;;;15.60;99.90;;;;;;4938601;28;20073;-82
2022/07/30 05:52:18;;;;;;;0.40;0.40;;;15.60;99.90;;;;;;4936832;28;20330;-82
2022/07/30 05:54:44;;;;;;;0.30;0.30;;;15.70;99.90;;;;;;4937058;28;20046;-83
2022/07/30 05:57:10;;;;;;;0.30;0.30;;;15.90;99.90;;;;;;4949886;28;20461;-82
2022/07/30 05:59:36;;;;;;;0.30;0.30;;;16.00;99.90;;;;;;4934869;28;20054;-82
2022/07/30 06:02:02;;;;;;;0.30;0.30;;;16.00;99.90;;;;;;4930163;28;20479;-81
2022/07/30 06:04:28;;;;;;;0.30;0.30;;;16.10;99.90;;;;;;4931213;28;20053;-82
2022/07/30 06:06:54;;;;;;;0.30;0.30;;;16.20;99.90;;;;;;4932980;28;20047;-82
2022/07/30 06:09:20;;;;;;;0.40;0.40;;;16.30;99.90;;;;;;4932550;28;20554;-83
2022/07/30 06:11:46;;;;;;;0.30;0.30;;;16.30;99.90;;;;;;4934516;28;20059;-81
2022/07/30 06:14:11;;;;;;;0.30;0.30;;;16.40;99.90;;;;;;4935694;28;20055;-82
2022/07/30 06:16:37;;;;;;;0.30;0.30;;;16.40;99.90;;;;;;4934139;28;20096;-82
2022/07/30 06:19:03;;;;;;;0.30;0.30;;;16.50;99.90;;;;;;4950239;28;20129;-79
2022/07/30 06:21:29;;;;;;;0.35;0.35;;;16.50;99.90;;;;;;4917458;28;20046;-79
2022/07/30 06:23:55;;;;;;;0.40;0.40;;;16.60;99.90;;;;;;4933873;28;20042;-82
2022/07/30 06:26:20;;;;;;;0.30;0.30;;;16.60;99.90;;;;;;4930659;28;20050;-81
2022/07/30 06:28:46;;;;;;;0.30;0.30;;;16.60;99.90;;;;;;4932468;28;20047;-82
2022/07/30 06:31:13;;;;;;;0.30;0.30;;;16.70;99.90;;;;;;4931526;28;20053;-82
2022/07/30 06:33:39;;;;;;;0.30;0.30;;;16.90;99.90;;;;;;4953075;28;20539;-82
2022/07/30 06:36:05;;;;;;;0.30;0.30;;;17.00;99.90;;;;;;4952225;28;20059;-82
2022/07/30 06:38:31;;;;;;;0.30;0.30;;;17.10;99.90;;;;;;4935945;28;20826;-83
2022/07/30 06:40:57;;;;;;;0.30;0.30;;;17.30;99.90;;;;;;4932706;28;20082;-83
2022/07/30 06:43:23;;;;;;;0.30;0.30;;;17.30;99.90;;;;;;4931151;28;20458;-83
2022/07/30 06:45:49;;;;;;;0.40;0.40;;;17.40;99.90;;;;;;4935825;28;20062;-82
2022/07/30 06:48:15;;;;;;;0.30;0.30;;;17.60;99.90;;;;;;4952848;28;20046;-83
2022/07/30 06:50:41;;;;;;;0.30;0.30;;;17.70;99.90;;;;;;4936099;28;20046;-83
2022/07/30 06:53:07;;;;;;;0.30;0.30;;;17.80;99.90;;;;;;4939324;28;20042;-82
2022/07/30 06:55:33;;;;;;;0.32;0.32;;;18.00;99.90;;;;;;4959535;28;20046;-82
2022/07/30 06:57:59;;;;;;;0.30;0.30;;;18.20;99.90;;;;;;4942303;28;20058;-82
2022/07/30 07:00:24;;;;;;;0.30;0.30;;;18.40;99.90;;;;;;4937892;28;20050;-81
2022/07/30 07:02:50;;;;;;;0.30;0.30;;;18.40;99.90;;;;;;4936692;28;20820;-83
2022/07/30 07:05:16;;;;;;;0.30;0.30;;;18.40;99.90;;;;;;4944435;28;20054;-83
2022/07/30 07:07:42;;;;;;;0.30;0.30;;;18.50;99.90;;;;;;4953810;28;20178;-82
2022/07/30 07:10:09;;;;;;;0.30;0.30;;;18.50;99.90;;;;;;4937947;28;20443;-82
2022/07/30 07:12:35;;;;;;;0.30;0.30;;;18.60;99.90;;;;;;4955230;28;20464;-83
2022/07/30 07:15:01;;;;;;;0.30;0.30;;;18.60;99.90;;;;;;4939205;28;20051;-82
2022/07/30 07:17:27;;;;;;;0.30;0.30;;;18.80;99.90;;;;;;4954489;28;20125;-83
2022/07/30 07:19:53;;;;;;;0.30;0.30;;;18.80;99.90;;;;;;4952332;28;20042;-83
2022/07/30 07:22:19;;;;;;;0.30;0.30;;;19.20;99.90;;;;;;4933618;28;20521;-83
2022/07/30 07:24:45;;;;;;;0.30;0.30;;;19.50;99.90;;;;;;4938578;28;20150;-82
2022/07/30 07:27:10;;;;;;;0.30;0.30;;;19.70;99.90;;;;;;4954302;28;20050;-83
2022/07/30 07:29:36;;;;;;;0.30;0.30;;;19.60;99.90;;;;;;4942501;28;20053;-83
2022/07/30 07:32:02;;;;;;;0.30;0.30;;;19.70;99.90;;;;;;4953450;28;20058;-81
2022/07/30 07:34:28;;;;;;;0.30;0.30;;;19.80;99.90;;;;;;4939240;28;20719;-84
2022/07/30 07:37:14;;;;;;;0.30;0.30;;;19.80;99.90;;;;;;4940563;28;20046;-83
2022/07/30 07:39:39;;;;;;;0.30;0.30;;;20.10;99.90;;;;;;4951848;28;20054;-83
2022/07/30 07:42:05;;;;;;;0.30;0.30;;;20.00;99.90;;;;;;4934772;28;20490;-82
2022/07/30 07:44:31;;;;;;;0.30;0.30;;;20.10;99.90;;;;;;4953784;28;20051;-82
2022/07/30 07:46:57;;;;;;;0.30;0.30;;;20.10;99.90;;;;;;4936997;28;20051;-83
2022/07/30 07:49:22;;;;;;;0.30;0.30;;;20.40;99.90;;;;;;4935016;28;20414;-83
2022/07/30 07:51:48;;;;;;;0.30;0.30;;;20.40;99.90;;;;;;4919417;28;20063;-83
2022/07/30 07:54:15;;;;;;;0.30;0.30;;;20.40;99.90;;;;;;4934153;28;20046;-83
2022/07/30 07:56:40;;;;;;;0.30;0.30;;;20.40;99.90;;;;;;4934489;28;20058;-83
2022/07/30 07:59:07;;;;;;;0.30;0.30;;;20.60;99.90;;;;;;4935948;28;20059;-82
2022/07/30 08:01:33;;;;;;;0.30;0.30;;;20.70;99.90;;;;;;4941450;28;20118;-82
2022/07/30 08:03:59;;;;;;;0.30;0.30;;;20.90;99.90;;;;;;4934130;28;20055;-83
2022/07/30 08:06:25;;;;;;;0.30;0.30;;;20.90;99.90;;;;;;4913042;28;20109;-83
2022/07/30 08:08:50;;;;;;;0.30;0.30;;;21.00;99.90;;;;;;4949540;28;20517;-83
2022/07/30 08:11:16;;;;;;;0.30;0.30;;;21.10;99.90;;;;;;4949966;28;20043;-81
2022/07/30 08:13:42;;;;;;;0.30;0.30;;;21.20;99.90;;;;;;4933920;28;20051;-84
2022/07/30 08:16:09;;;;;;;0.30;0.30;;;21.30;99.90;;;;;;4935936;28;20043;-84
2022/07/30 08:18:36;;;;;;;0.30;0.30;;;21.30;99.90;;;;;;4934926;28;20283;-83
2022/07/30 08:21:02;;;;;;;0.30;0.30;;;21.40;99.90;;;;;;4933879;28;20038;-84
2022/07/30 08:23:28;;;;;;;0.30;0.30;;;21.80;99.90;;;;;;4931911;28;20047;-83
2022/07/30 08:25:57;;;;;;;0.30;0.30;;;22.10;99.90;;;;;;4916295;28;20845;-82
2022/07/30 08:28:23;;;;;;;0.30;0.30;;;22.10;99.90;;;;;;4932668;28;20050;-82
2022/07/30 08:30:49;;;;;;;0.30;0.30;;;22.30;99.90;;;;;;4945631;28;20168;-84
2022/07/30 08:33:15;;;;;;;0.30;0.30;;;22.50;99.90;;;;;;4939630;28;20591;-84
2022/07/30 08:35:41;;;;;;;0.30;0.30;;;22.80;99.90;;;;;;4936160;28;20105;-82
2022/07/30 08:38:07;;;;;;;0.30;0.30;;;22.30;99.90;;;;;;4936385;28;20050;-82
2022/07/30 08:40:34;;;;;;;0.30;0.30;;;22.20;99.90;;;;;;4936159;28;20047;-82
2022/07/30 08:43:05;;;;;;;0.30;0.30;;;22.10;99.90;;;;;;4917409;28;20051;-80
2022/07/30 08:45:32;;;;;;;0.30;0.30;;;22.50;99.90;;;;;;4930965;28;20051;-82
2022/07/30 08:48:06;;;;;;;0.30;0.30;;;22.40;99.90;;;;;;4933436;28;20064;-81
2022/07/30 08:50:33;;;;;;;0.30;0.30;;;22.60;99.90;;;;;;4936868;28;20047;-82
2022/07/30 08:53:00;;;;;;;0.20;0.20;;;23.00;99.90;;;;;;4931740;28;21567;-83
2022/07/30 08:55:27;;;;;;;0.30;0.30;;;23.20;99.90;;;;;;4941952;28;20642;-83
2022/07/30 08:57:53;;;;;;;0.30;0.30;;;22.70;99.90;;;;;;4930651;28;20063;-83
2022/07/30 09:00:20;;;;;;;0.30;0.30;;;23.00;99.90;;;;;;4933213;28;20050;-83
2022/07/30 09:02:46;;;;;;;0.25;0.25;;;23.30;99.90;;;;;;4942072;28;20058;-82
2022/07/30 09:05:12;;;;;;;0.20;0.20;;;23.60;99.90;;;;;;4933202;28;20122;-81
2022/07/30 09:07:39;;;;;;;0.30;0.30;;;23.60;99.90;;;;;;4915553;28;20149;-84
2022/07/30 09:10:07;;;;;;;0.30;0.30;;;23.70;99.90;;;;;;4940861;28;20059;-82
2022/07/30 09:12:44;;;;;;;0.20;0.20;;;23.90;99.90;;;;;;4913742;28;20185;-82
2022/07/30 09:15:17;;;;;;;0.30;0.30;;;24.00;99.90;;;;;;4909148;28;20482;-82
2022/07/30 09:18:02;;;;;;;0.30;0.30;;;23.90;99.90;;;;;;4931087;28;20067;-82
2022/07/30 09:20:31;;;;;;;0.28;0.28;;;24.10;99.90;;;;;;4929454;28;20058;-82
2022/07/30 09:23:03;;;;;;;0.20;0.20;;;24.30;99.90;;;;;;4927939;28;20038;-83
2022/07/30 09:25:48;;;;;;;0.30;0.30;;;24.20;99.90;;;;;;4925773;28;20073;-84
2022/07/30 09:28:14;;;;;;;0.30;0.30;;;24.10;99.90;;;;;;4930345;28;20047;-82
2022/07/30 09:30:54;;;;;;;0.20;0.20;;;24.70;99.90;;;;;;4911473;28;20058;-80
2022/07/30 09:33:32;;;;;;;0.30;0.30;;;24.50;99.90;;;;;;4929717;28;20050;-82
2022/07/30 09:35:58;;;;;;;0.30;0.30;;;24.90;99.90;;;;;;4934021;28;20501;-82
2022/07/30 09:38:25;;;;;;;0.20;0.20;;;25.10;99.90;;;;;;4924440;28;20149;-80
2022/07/30 09:40:56;;;;;;;0.25;0.25;;;25.20;99.90;;;;;;4925140;28;20062;-82
2022/07/30 09:43:22;;;;;;;0.30;0.30;;;25.10;99.90;;;;;;4926667;28;21097;-83
2022/07/30 09:45:56;;;;;;;0.20;0.20;;;25.40;99.90;;;;;;4926450;28;20057;-82
2022/07/30 09:48:26;;;;;;;0.20;0.20;;;25.50;99.90;;;;;;4931737;28;20569;-81
2022/07/30 09:50:53;;;;;;;0.28;0.28;;;25.70;99.90;;;;;;4946967;28;20453;-81
2022/07/30 09:53:23;;;;;;;0.20;0.20;;;25.70;99.90;;;;;;4948935;28;20129;-84
2022/07/30 09:55:49;;;;;;;0.22;0.22;;;25.80;99.90;;;;;;4944240;28;20054;-82
2022/07/30 09:58:15;;;;;;;0.30;0.30;;;25.90;99.90;;;;;;4927928;28;20054;-81
2022/07/30 10:00:42;;;;;;;0.30;0.30;;;26.20;99.90;;;;;;4929494;28;20062;-84
2022/07/30 10:03:40;;;;;;;0.28;0.28;;;26.00;99.90;;;;;;4924816;28;20058;-81
2022/07/30 10:06:05;;;;;;;0.22;0.22;;;26.20;99.90;;;;;;4919594;28;20093;-83
2022/07/30 10:08:50;;;;;;;0.20;0.20;;;26.20;99.90;;;;;;4937802;28;20059;-81
2022/07/30 10:11:23;;;;;;;0.20;0.20;;;26.50;99.90;;;;;;4934733;28;20065;-81
2022/07/30 10:13:53;;;;;;;0.28;0.28;;;26.60;99.90;;;;;;4940217;28;20168;-81
2022/07/30 10:16:19;;;;;;;0.20;0.20;;;26.90;99.90;;;;;;4934654;28;21061;-83
2022/07/30 10:18:45;;;;;;;0.20;0.20;;;26.90;99.90;;;;;;4952388;28;20047;-81
2022/07/30 10:21:12;;;;;;;0.20;0.20;;;26.70;99.90;;;;;;4931538;28;20042;-81
2022/07/30 10:23:39;;;;;;;0.20;0.20;;;26.70;99.90;;;;;;4957765;28;20871;-82
2022/07/30 10:26:07;;;;;;;0.22;0.22;;;26.60;99.90;;;;;;4955252;28;20489;-81
2022/07/30 10:28:33;;;;;;;0.20;0.20;;;26.80;99.90;;;;;;4937020;28;20051;-79
2022/07/30 10:30:59;;;;;;;0.25;0.25;;;27.10;99.90;;;;;;4956196;28;20081;-77
2022/07/30 10:33:29;;;;;;;0.20;0.20;;;26.80;99.90;;;;;;4960031;28;21374;-77
2022/07/30 10:35:56;;;;;;;0.30;0.30;;;26.90;99.90;;;;;;4961739;28;20061;-80
2022/07/30 10:38:27;;;;;;;0.20;0.20;;;26.90;99.90;;;;;;4943998;28;20039;-79
2022/07/30 10:40:57;;;;;;;0.25;0.25;;;27.10;99.90;;;;;;4941620;28;20077;-80
2022/07/30 10:43:26;;;;;;;0.20;0.20;;;27.40;99.90;;;;;;4958819;28;20058;-81
2022/07/30 10:46:13;;;;;;;0.22;0.22;;;27.30;99.90;;;;;;4955088;28;20046;-81
2022/07/30 10:48:39;;;;;;;0.20;0.20;;;26.40;99.90;;;;;;4955970;28;20070;-79
2022/07/30 10:51:05;;;;;;;0.20;0.20;;;27.20;99.90;;;;;;4937584;28;20988;-79
2022/07/30 10:53:45;;;;;;;0.20;0.20;;;27.40;99.90;;;;;;4931895;28;20050;-80
2022/07/30 10:56:22;;;;;;;0.30;0.30;;;26.60;99.90;;;;;;4922039;28;20054;-80
2022/07/30 10:59:08;;;;;;;0.20;0.20;;;26.30;99.90;;;;;;4932410;28;20527;-79
2022/07/30 11:01:46;;;;;;;0.20;0.20;;;25.70;99.90;;;;;;4932583;28;20057;-80
2022/07/30 11:04:24;;;;;;;0.30;0.30;;;25.60;99.90;;;;;;4913791;28;20054;-79
2022/07/30 11:06:51;;;;;;;0.20;0.20;;;26.40;99.90;;;;;;4924101;28;20956;-78
2022/07/30 11:09:36;;;;;;;0.20;0.20;;;26.10;99.90;;;;;;4942985;28;20493;-80
2022/07/30 11:12:02;;;;;;;0.20;0.20;;;26.10;99.90;;;;;;4933024;28;20051;-81
2022/07/30 11:14:46;;;;;;;0.30;0.30;;;26.50;99.90;;;;;;4923972;28;20046;-81
2022/07/30 11:17:17;;;;;;;0.20;0.20;;;26.00;99.90;;;;;;4923653;28;20054;-81
2022/07/30 11:20:05;;;;;;;0.20;0.20;;;25.90;99.90;;;;;;4920765;28;20134;-80
2022/07/30 11:22:43;;;;;;;0.20;0.20;;;25.80;99.90;;;;;;4921774;28;20054;-79
2022/07/30 11:25:22;;;;;;;0.20;0.20;;;26.50;99.90;;;;;;4924600;28;20061;-79
2022/07/30 11:27:49;;;;;;;0.20;0.20;;;26.20;99.90;;;;;;4927055;28;20054;-80
2022/07/30 11:30:15;;;;;;;0.20;0.20;;;26.00;99.90;;;;;;4923414;28;20108;-78
2022/07/30 11:32:45;;;;;;;0.20;0.20;;;26.50;99.90;;;;;;4923139;28;20504;-79
2022/07/30 11:35:13;;;;;;;0.30;0.30;;;26.80;99.90;;;;;;4935907;28;20062;-78
2022/07/30 11:38:10;;;;;;;0.20;0.20;;;27.10;99.90;;;;;;4951747;28;20457;-79
2022/07/30 11:40:46;;;;;;;0.28;0.28;;;27.20;99.90;;;;;;4922036;28;20047;-78
2022/07/30 11:43:31;;;;;;;0.20;0.20;;;27.40;99.90;;;;;;4953215;28;20046;-79
2022/07/30 11:46:07;;;;;;;0.30;0.30;;;27.60;99.90;;;;;;4945364;28;20054;-78
2022/07/30 11:48:34;;;;;;;0.20;0.20;;;27.70;99.90;;;;;;4953483;28;20061;-77
2022/07/30 11:51:00;;;;;;;0.30;0.30;;;28.00;99.90;;;;;;4957824;28;20379;-78
2022/07/30 11:53:26;;;;;;;0.30;0.30;;;27.90;99.90;;;;;;4937409;28;20046;-79
2022/07/30 11:55:57;;;;;;;0.20;0.20;;;28.20;99.90;;;;;;4954951;28;20080;-80
2022/07/30 11:58:35;;;;;;;0.20;0.20;;;28.30;99.90;;;;;;4956298;28;20050;-78
2022/07/30 12:01:15;;;;;;;0.20;0.20;;;28.40;99.90;;;;;;4955607;28;20128;-79
2022/07/30 12:03:43;;;;;;;0.25;0.25;;;28.50;99.90;;;;;;4957405;28;20493;-79
2022/07/30 12:06:16;;;;;;;0.22;0.22;;;28.40;99.90;;;;;;4958276;28;20043;-80
2022/07/30 12:08:44;;;;;;;0.20;0.20;;;27.60;99.90;;;;;;4938912;28;20055;-81
2022/07/30 12:11:10;;;;;;;0.20;0.20;;;27.10;99.90;;;;;;4932551;28;20050;-83
2022/07/30 12:13:36;;;;;;;0.20;0.20;;;27.70;99.90;;;;;;4954105;28;20050;-79
2022/07/30 12:16:10;;;;;;;0.20;0.20;;;28.00;99.90;;;;;;4940156;28;20047;-80
2022/07/30 12:18:36;;;;;;;;;;;28.40;99.90;;;;;;4948774;28;20058;-81
2022/07/30 12:21:08;;;;;;;0.30;0.30;;;28.00;99.90;;;;;;4954200;28;19930;-84
2022/07/30 12:23:35;;;;;;;0.20;0.20;;;27.90;99.90;;;;;;4954203;28;20046;-82
2022/07/30 12:26:01;;;;;;;0.20;0.20;;;28.00;99.90;;;;;;4939181;28;20051;-80
2022/07/30 12:28:32;;;;;;;0.20;0.20;;;27.40;99.90;;;;;;4937822;28;20100;-79
2022/07/30 12:31:01;;;;;;;0.20;0.20;;;27.30;99.90;;;;;;4938104;28;20082;-81
2022/07/30 12:33:27;;;;;;;0.20;0.20;;;26.80;99.90;;;;;;4936153;28;20587;-82
2022/07/30 12:35:58;;;;;;;0.20;0.20;;;26.60;99.90;;;;;;4935096;28;20090;-81
2022/07/30 12:38:26;;;;;;;0.30;0.30;;;27.30;99.90;;;;;;4949375;28;20057;-82
2022/07/30 12:40:59;;;;;;;0.20;0.20;;;27.40;99.90;;;;;;4951803;28;20497;-81
2022/07/30 12:43:46;;;;;;;0.25;0.25;;;27.10;99.90;;;;;;4940084;28;20050;-83
2022/07/30 12:46:25;;;;;;;0.20;0.20;;;27.30;99.90;;;;;;4936990;28;20764;-81
2022/07/30 12:48:53;;;;;;;0.22;0.22;;;26.70;99.90;;;;;;4937703;28;20141;-81
2022/07/30 12:51:21;;;;;;;0.20;0.20;;;27.10;99.90;;;;;;4932375;28;20074;-80
2022/07/30 12:53:47;;;;;;;0.20;0.20;;;27.30;99.90;;;;;;4956329;28;20050;-82
2022/07/30 12:56:15;;;;;;;0.20;0.20;;;27.50;99.50;;;;;;4936406;28;20047;-80